Time;durP1;ratioP1;P1;durP2;ratioP2;P2;SDS_P1;SDS_P2;PMS_P1;PMS_P2;Temp;Humidity;BMP_temperature;BMP_pressure;BME280_temperature;BME280_humidity;BME280_pressure;Samples;Min_cycle;Max_cycle;Signal;HPM_P1;HPM_P2
2023/12/19 00:03:52;;;;;;;2.40;2.17;;;6.70;99.90;;;;;;9796045;30;20229;-82
2023/12/19 00:09:13;;;;;;;3.53;2.63;;;6.80;99.90;;;;;;9821098;30;20432;-82
2023/12/19 00:14:35;;;;;;;3.13;2.40;;;6.70;99.90;;;;;;9807879;30;20241;-81
2023/12/19 00:19:56;;;;;;;3.27;2.53;;;6.70;99.90;;;;;;9819935;30;20404;-82
2023/12/19 00:25:18;;;;;;;3.63;2.40;;;6.70;99.90;;;;;;9820281;30;20206;-81
2023/12/19 00:30:39;;;;;;;2.07;1.83;;;6.80;99.90;;;;;;9807488;30;20213;-82
2023/12/19 00:36:00;;;;;;;1.90;1.80;;;6.70;99.90;;;;;;9795281;30;20321;-82
2023/12/19 00:41:22;;;;;;;2.70;1.70;;;6.80;99.90;;;;;;9820648;30;20226;-83
2023/12/19 00:46:43;;;;;;;3.90;2.17;;;6.80;99.90;;;;;;9818846;30;20229;-81
2023/12/19 00:52:04;;;;;;;8.40;1.70;;;6.80;99.90;;;;;;9819344;30;20209;-83
2023/12/19 00:57:25;;;;;;;4.97;1.40;;;6.80;99.90;;;;;;9818644;30;20582;-82
2023/12/19 01:02:47;;;;;;;1.70;1.50;;;6.70;99.90;;;;;;9818895;30;20233;-83
2023/12/19 01:08:08;;;;;;;1.90;1.47;;;6.70;99.90;;;;;;9806166;30;20210;-84
2023/12/19 01:13:29;;;;;;;2.43;1.47;;;6.70;99.90;;;;;;9806379;30;20206;-82
2023/12/19 01:18:51;;;;;;;3.73;2.10;;;6.80;99.90;;;;;;9792551;30;20587;-85
2023/12/19 01:24:12;;;;;;;3.40;2.80;;;6.70;99.90;;;;;;9793962;30;20213;-82
2023/12/19 01:29:33;;;;;;;2.37;1.90;;;6.70;99.90;;;;;;9806189;30;20429;-81
2023/12/19 01:34:55;;;;;;;3.83;1.80;;;6.70;99.90;;;;;;9806155;30;20225;-85
2023/12/19 01:40:17;;;;;;;1.70;1.60;;;6.80;99.90;;;;;;9805732;30;20213;-83
2023/12/19 01:45:38;;;;;;;1.93;1.80;;;6.80;99.90;;;;;;9802025;30;20237;-82
2023/12/19 01:50:59;;;;;;;3.70;2.77;;;6.70;99.90;;;;;;9803705;30;20536;-84
2023/12/19 01:56:21;;;;;;;1.87;1.73;;;6.70;99.90;;;;;;9805041;30;20454;-83
2023/12/19 02:01:43;;;;;;;3.87;2.67;;;6.60;99.90;;;;;;9792524;30;20431;-84
2023/12/19 02:07:04;;;;;;;3.27;2.63;;;6.60;99.90;;;;;;9792770;30;20215;-84
2023/12/19 02:12:27;;;;;;;4.37;3.20;;;6.70;99.90;;;;;;9816298;30;20218;-81
2023/12/19 02:17:48;;;;;;;3.70;3.10;;;6.70;99.90;;;;;;9818919;30;20591;-82
2023/12/19 02:23:11;;;;;;;3.77;3.37;;;6.60;99.90;;;;;;9812352;30;20199;-82
2023/12/19 02:28:32;;;;;;;4.73;4.10;;;6.70;99.90;;;;;;9811833;30;20222;-82
2023/12/19 02:33:54;;;;;;;4.50;4.10;;;6.70;99.90;;;;;;9812152;30;20203;-82
2023/12/19 02:39:15;;;;;;;6.63;4.70;;;6.80;99.90;;;;;;9811335;30;20213;-81
2023/12/19 02:44:37;;;;;;;5.00;3.97;;;6.70;99.90;;;;;;9823937;30;20508;-82
2023/12/19 02:49:58;;;;;;;4.53;3.90;;;6.70;99.90;;;;;;9811242;30;20256;-81
2023/12/19 02:55:19;;;;;;;5.17;4.30;;;6.70;99.90;;;;;;9821118;30;20551;-81
2023/12/19 03:00:40;;;;;;;4.90;3.87;;;6.70;99.90;;;;;;9798466;30;20247;-81
2023/12/19 03:06:02;;;;;;;5.63;4.47;;;6.70;99.90;;;;;;9798581;30;20352;-81
2023/12/19 03:11:24;;;;;;;6.20;4.97;;;6.70;99.90;;;;;;9809428;30;20219;-81
2023/12/19 03:16:45;;;;;;;5.37;4.50;;;6.70;99.90;;;;;;9822689;30;20250;-81
2023/12/19 03:22:07;;;;;;;5.40;3.53;;;6.70;99.90;;;;;;9797782;30;20244;-81
2023/12/19 03:27:28;;;;;;;8.53;6.30;;;6.70;99.90;;;;;;9786350;30;20229;-81
2023/12/19 03:32:50;;;;;;;5.97;4.17;;;6.70;99.90;;;;;;9784879;30;20210;-81
2023/12/19 03:38:11;;;;;;;4.60;4.10;;;6.70;99.90;;;;;;9785518;30;20248;-81
2023/12/19 03:43:34;;;;;;;7.67;3.90;;;6.70;99.90;;;;;;9812136;30;20568;-82
2023/12/19 03:48:55;;;;;;;4.13;3.70;;;6.70;99.90;;;;;;9796898;30;20502;-80
2023/12/19 03:54:17;;;;;;;5.40;3.87;;;6.80;99.90;;;;;;9808559;30;20232;-82
2023/12/19 03:59:42;;;;;;;5.23;4.20;;;6.70;99.90;;;;;;9808503;30;20550;-81
2023/12/19 04:05:04;;;;;;;3.87;3.47;;;6.70;99.90;;;;;;9787079;30;20292;-83
2023/12/19 04:10:25;;;;;;;4.63;3.70;;;6.70;99.90;;;;;;9776532;30;20207;-82
2023/12/19 04:15:47;;;;;;;3.97;3.60;;;6.70;99.90;;;;;;9795991;30;20292;-83
2023/12/19 04:21:08;;;;;;;3.83;3.23;;;6.70;99.90;;;;;;9795768;30;20212;-82
2023/12/19 04:26:30;;;;;;;5.27;3.80;;;6.80;99.90;;;;;;9764382;30;20221;-82
2023/12/19 04:31:51;;;;;;;4.77;4.00;;;6.70;99.90;;;;;;9771456;30;20215;-82
2023/12/19 04:37:13;;;;;;;4.17;3.40;;;6.70;99.90;;;;;;9771098;30;20278;-83
2023/12/19 04:42:33;;;;;;;3.73;3.43;;;6.70;99.90;;;;;;9790322;30;20312;-82
2023/12/19 04:47:55;;;;;;;9.83;3.57;;;6.70;99.90;;;;;;9794740;30;20261;-80
2023/12/19 04:53:16;;;;;;;5.17;4.13;;;6.80;99.90;;;;;;9806453;30;20230;-82
2023/12/19 04:58:38;;;;;;;3.80;2.80;;;6.80;99.90;;;;;;9794170;30;20575;-83
2023/12/19 05:04:00;;;;;;;4.07;3.67;;;6.80;99.90;;;;;;9817268;30;20302;-81
2023/12/19 05:09:21;;;;;;;5.93;3.90;;;6.80;99.90;;;;;;9806661;30;20210;-84
2023/12/19 05:14:43;;;;;;;4.10;3.40;;;6.80;99.90;;;;;;9818679;30;20266;-80
2023/12/19 05:20:05;;;;;;;3.97;3.27;;;6.80;99.90;;;;;;9805887;30;20210;-84
2023/12/19 05:25:27;;;;;;;4.20;3.80;;;6.80;99.90;;;;;;9805876;30;20446;-82
2023/12/19 05:30:48;;;;;;;4.73;3.13;;;6.80;99.90;;;;;;9805109;30;20260;-81
2023/12/19 05:36:12;;;;;;;3.30;3.00;;;6.80;99.90;;;;;;9782930;30;20292;-83
2023/12/19 05:41:34;;;;;;;2.90;2.57;;;6.80;99.90;;;;;;9818283;30;20201;-84
2023/12/19 05:46:56;;;;;;;3.77;3.30;;;6.90;99.90;;;;;;9817923;30;20258;-85
2023/12/19 05:52:17;;;;;;;3.67;2.93;;;6.90;99.90;;;;;;9818256;30;20202;-83
2023/12/19 05:57:39;;;;;;;4.13;3.53;;;6.80;99.90;;;;;;9805313;30;20240;-79
2023/12/19 06:03:01;;;;;;;4.30;3.73;;;6.80;99.90;;;;;;9815745;30;20222;-84
2023/12/19 06:08:22;;;;;;;5.30;3.73;;;6.90;99.90;;;;;;9792869;30;20233;-82
2023/12/19 06:13:44;;;;;;;3.43;2.80;;;6.90;99.90;;;;;;9817585;30;20232;-82
2023/12/19 06:19:05;;;;;;;2.97;2.67;;;6.90;99.90;;;;;;9804742;30;20238;-85
2023/12/19 06:24:26;;;;;;;3.63;3.17;;;6.90;99.90;;;;;;9804620;30;20236;-85
2023/12/19 06:29:48;;;;;;;3.77;3.33;;;7.00;99.90;;;;;;9804844;30;20406;-83
2023/12/19 06:35:09;;;;;;;10.30;5.73;;;7.00;99.90;;;;;;9803542;30;20237;-82
2023/12/19 06:40:31;;;;;;;4.60;4.10;;;7.00;99.90;;;;;;9804627;30;20436;-83
2023/12/19 06:45:52;;;;;;;6.17;4.47;;;7.00;99.90;;;;;;9804511;30;20214;-84
2023/12/19 06:51:26;;;;;;;5.57;4.70;;;7.10;99.90;;;;;;9817050;30;20234;-84
2023/12/19 06:56:47;;;;;;;6.37;4.40;;;7.10;99.90;;;;;;9816581;30;20238;-85
2023/12/19 07:02:09;;;;;;;4.57;3.93;;;7.10;99.90;;;;;;9803728;30;20288;-83
2023/12/19 07:07:30;;;;;;;6.67;3.90;;;7.10;99.90;;;;;;9822517;30;20252;-83
2023/12/19 07:12:52;;;;;;;8.63;5.73;;;7.10;99.90;;;;;;9799170;30;20210;-85
2023/12/19 07:18:13;;;;;;;7.17;3.90;;;7.10;99.90;;;;;;9811686;30;20571;-82
2023/12/19 07:23:34;;;;;;;4.33;3.90;;;7.20;99.90;;;;;;9799140;30;20240;-85
2023/12/19 07:28:57;;;;;;;6.80;5.13;;;7.20;99.90;;;;;;9822280;30;20287;-81
2023/12/19 07:34:18;;;;;;;10.13;6.87;;;7.30;99.90;;;;;;9810186;30;20268;-83
2023/12/19 07:39:40;;;;;;;6.90;4.70;;;7.20;99.90;;;;;;9809888;30;20218;-80
2023/12/19 07:45:02;;;;;;;6.10;4.90;;;7.20;99.90;;;;;;9821069;30;20281;-83
2023/12/19 07:50:24;;;;;;;6.77;4.20;;;7.30;99.90;;;;;;9797615;30;20257;-83
2023/12/19 07:55:45;;;;;;;4.37;3.97;;;7.30;99.90;;;;;;9811116;30;20321;-83
2023/12/19 08:01:12;;;;;;;5.27;3.90;;;7.40;99.90;;;;;;9794543;30;20205;-82
2023/12/19 08:06:35;;;;;;;6.37;4.17;;;7.40;99.90;;;;;;9797885;30;20221;-86
2023/12/19 08:11:57;;;;;;;7.13;4.80;;;7.40;99.90;;;;;;9775429;30;20288;-82
2023/12/19 08:17:20;;;;;;;7.43;5.07;;;7.50;99.90;;;;;;9788509;30;20377;-81
2023/12/19 08:22:42;;;;;;;7.50;4.90;;;7.50;99.90;;;;;;9783141;30;20214;-80
2023/12/19 08:28:04;;;;;;;4.70;4.23;;;7.50;99.90;;;;;;9796874;30;20529;-80
2023/12/19 08:33:25;;;;;;;5.90;4.27;;;7.50;99.90;;;;;;9802043;30;20533;-84
2023/12/19 08:38:46;;;;;;;4.20;3.73;;;7.60;99.90;;;;;;9767263;30;20296;-83
2023/12/19 08:44:08;;;;;;;8.90;5.13;;;7.60;99.90;;;;;;9803762;30;20217;-81
2023/12/19 08:49:29;;;;;;;6.43;4.67;;;7.60;99.90;;;;;;9799510;30;20234;-87
2023/12/19 08:54:51;;;;;;;5.60;4.23;;;7.60;99.90;;;;;;9811690;30;20219;-82
2023/12/19 09:00:19;;;;;;;5.60;4.30;;;7.70;99.90;;;;;;9819760;30;20726;-91
2023/12/19 09:05:41;;;;;;;5.23;4.13;;;7.70;99.90;;;;;;9801651;30;20202;-81
2023/12/19 09:11:04;;;;;;;7.23;4.73;;;7.70;99.90;;;;;;9778422;30;20276;-80
2023/12/19 09:16:25;;;;;;;6.13;4.77;;;7.80;99.90;;;;;;9776738;30;20238;-81
2023/12/19 09:21:46;;;;;;;10.30;6.53;;;7.80;99.90;;;;;;9787098;30;20223;-86
2023/12/19 09:27:07;;;;;;;7.77;5.87;;;7.80;99.90;;;;;;9763921;30;20285;-81
2023/12/19 09:32:29;;;;;;;8.23;6.53;;;7.80;99.90;;;;;;9801063;30;20217;-82
2023/12/19 09:37:50;;;;;;;7.10;6.20;;;7.80;99.90;;;;;;9788809;30;20261;-88
2023/12/19 09:43:12;;;;;;;8.77;6.47;;;7.80;99.90;;;;;;9779846;30;20245;-81
2023/12/19 09:48:35;;;;;;;8.60;6.43;;;7.80;99.90;;;;;;9763715;30;20330;-80
2023/12/19 09:54:01;;;;;;;10.10;6.90;;;7.80;99.90;;;;;;9755237;30;20214;-80
2023/12/19 09:59:23;;;;;;;7.77;6.17;;;7.90;99.90;;;;;;9813016;30;20478;-82
2023/12/19 10:04:44;;;;;;;7.97;6.43;;;7.80;99.90;;;;;;9797207;30;20229;-80
2023/12/19 10:10:07;;;;;;;7.50;6.17;;;7.80;99.90;;;;;;9825951;30;20234;-81
2023/12/19 10:15:28;;;;;;;8.93;6.03;;;7.80;99.90;;;;;;9788184;30;20288;-85
2023/12/19 10:20:49;;;;;;;10.93;8.23;;;7.80;99.90;;;;;;9799780;30;20470;-81
2023/12/19 10:26:11;;;;;;;7.10;5.77;;;7.80;99.90;;;;;;9799353;30;20285;-89
2023/12/19 10:31:33;;;;;;;7.47;5.53;;;7.80;99.90;;;;;;9799330;30;20384;-92
2023/12/19 10:37:08;;;;;;;9.27;6.80;;;8.00;99.90;;;;;;9799451;30;20250;-85
2023/12/19 10:42:29;;;;;;;9.53;6.50;;;7.90;99.90;;;;;;9806190;30;20349;-81
2023/12/19 10:47:50;;;;;;;10.67;6.50;;;7.90;99.90;;;;;;9793865;30;20552;-80
2023/12/19 10:53:13;;;;;;;7.87;6.07;;;7.90;99.90;;;;;;9805806;30;20225;-82
2023/12/19 10:58:36;;;;;;;9.63;6.23;;;7.90;99.90;;;;;;9816885;30;20246;-81
2023/12/19 11:04:01;;;;;;;9.53;6.83;;;7.90;99.90;;;;;;9783756;30;20233;-81
2023/12/19 11:09:29;;;;;;;10.03;6.70;;;7.80;99.90;;;;;;9802441;30;20214;-81
2023/12/19 11:14:50;;;;;;;9.03;5.57;;;7.80;99.90;;;;;;9817405;30;20215;-80
2023/12/19 11:20:45;;;;;;;8.50;6.10;;;7.80;99.90;;;;;;9802612;30;20290;-79
2023/12/19 11:26:17;;;;;;;7.00;5.87;;;7.90;99.90;;;;;;9814196;30;20388;-79
2023/12/19 11:31:38;;;;;;;10.20;6.17;;;7.90;99.90;;;;;;9812377;30;20223;-82
2023/12/19 11:37:04;;;;;;;14.70;7.67;;;7.80;99.90;;;;;;9780999;30;20254;-80
2023/12/19 11:42:37;;;;;;;9.10;6.03;;;7.80;99.90;;;;;;9781905;30;20203;-84
2023/12/19 11:47:59;;;;;;;9.43;6.73;;;7.80;99.90;;;;;;9756265;30;20278;-80
2023/12/19 11:53:23;;;;;;;17.33;8.23;;;7.80;99.90;;;;;;9767203;30;20214;-78
2023/12/19 11:58:47;;;;;;;11.83;7.30;;;7.80;99.90;;;;;;9815341;30;20432;-80
2023/12/19 12:04:11;;;;;;;8.83;5.40;;;7.80;99.90;;;;;;9817345;30;20218;-82
2023/12/19 12:09:33;;;;;;;8.70;6.30;;;7.70;99.90;;;;;;9789961;30;20223;-81
2023/12/19 12:15:07;;;;;;;11.73;7.67;;;7.70;99.90;;;;;;9780667;30;20234;-84
2023/12/19 12:20:33;;;;;;;9.43;5.40;;;7.70;99.90;;;;;;9781674;30;20204;-82
2023/12/19 12:25:58;;;;;;;9.73;6.80;;;7.70;99.90;;;;;;9779688;30;20216;-80
2023/12/19 12:31:20;;;;;;;17.07;8.50;;;7.70;99.90;;;;;;9768842;30;20311;-80
2023/12/19 12:36:46;;;;;;;18.67;10.10;;;7.60;99.90;;;;;;9779356;30;20231;-80
2023/12/19 12:42:08;;;;;;;11.67;7.30;;;7.60;99.90;;;;;;9766853;30;20252;-81
2023/12/19 12:47:28;;;;;;;12.47;8.53;;;7.50;99.90;;;;;;9778501;30;20246;-80
2023/12/19 12:52:50;;;;;;;13.33;8.17;;;7.50;99.90;;;;;;9778072;30;20215;-79
2023/12/19 12:58:11;;;;;;;13.57;8.27;;;7.50;99.90;;;;;;9784392;30;20250;-80
2023/12/19 13:03:33;;;;;;;15.50;9.10;;;7.50;99.90;;;;;;9804637;30;20220;-82
2023/12/19 13:08:54;;;;;;;17.97;9.77;;;7.40;99.90;;;;;;9788940;30;20225;-79
2023/12/19 13:14:16;;;;;;;16.37;10.87;;;7.40;99.90;;;;;;9800922;30;20212;-80
2023/12/19 13:19:39;;;;;;;16.67;9.57;;;7.40;99.90;;;;;;9782007;30;20239;-81
2023/12/19 13:25:00;;;;;;;14.60;9.40;;;7.40;99.90;;;;;;9777249;30;20215;-80
2023/12/19 13:30:21;;;;;;;12.80;7.87;;;7.30;99.90;;;;;;9783795;30;20236;-81
2023/12/19 13:35:43;;;;;;;14.20;7.17;;;7.30;99.90;;;;;;9788765;30;20250;-80
2023/12/19 13:41:04;;;;;;;9.63;6.27;;;7.30;99.90;;;;;;9777911;30;20283;-80
2023/12/19 13:46:25;;;;;;;9.30;7.07;;;7.20;99.90;;;;;;9797515;30;20216;-82
2023/12/19 13:51:46;;;;;;;10.27;7.83;;;7.20;99.90;;;;;;9787704;30;20470;-80
2023/12/19 13:57:08;;;;;;;13.30;8.60;;;7.20;99.90;;;;;;9804789;30;20249;-79
2023/12/19 14:02:29;;;;;;;17.47;9.43;;;7.20;99.90;;;;;;9786978;30;20218;-80
2023/12/19 14:07:50;;;;;;;14.13;8.27;;;7.20;99.90;;;;;;9799195;30;20249;-80
2023/12/19 14:13:15;;;;;;;8.93;6.30;;;7.20;99.90;;;;;;9770996;30;20253;-82
2023/12/19 14:18:37;;;;;;;8.13;6.10;;;7.10;99.90;;;;;;9834101;30;20229;-83
2023/12/19 14:23:58;;;;;;;10.60;5.80;;;7.20;99.90;;;;;;9815887;30;20210;-82
2023/12/19 14:29:19;;;;;;;11.90;6.63;;;7.10;99.90;;;;;;9810411;30;20285;-83
2023/12/19 14:34:42;;;;;;;14.43;8.50;;;7.10;99.90;;;;;;9806066;30;20319;-85
2023/12/19 14:40:04;;;;;;;20.50;11.67;;;7.10;99.90;;;;;;9793782;30;20242;-81
2023/12/19 14:45:25;;;;;;;12.57;8.27;;;7.10;99.90;;;;;;9820290;30;20216;-85
2023/12/19 14:50:47;;;;;;;26.00;14.83;;;7.00;99.90;;;;;;9815689;30;20704;-82
2023/12/19 14:56:10;;;;;;;24.67;9.63;;;7.00;99.90;;;;;;9811871;30;20229;-82
2023/12/19 15:01:31;;;;;;;14.20;6.53;;;7.00;99.90;;;;;;9811128;30;20211;-82
2023/12/19 15:06:56;;;;;;;19.40;8.23;;;7.00;99.90;;;;;;9792665;30;20222;-81
2023/12/19 15:12:18;;;;;;;14.27;6.03;;;7.00;99.90;;;;;;9819483;30;20258;-81
2023/12/19 15:17:40;;;;;;;10.53;4.47;;;7.00;99.90;;;;;;9823176;30;20410;-79
2023/12/19 15:23:06;;;;;;;10.13;4.87;;;7.00;99.90;;;;;;9797257;30;20285;-82
2023/12/19 15:28:28;;;;;;;8.87;4.77;;;7.00;99.90;;;;;;9817009;30;20215;-80
2023/12/19 15:33:49;;;;;;;6.10;4.43;;;7.00;99.90;;;;;;9805206;30;20521;-81
2023/12/19 15:39:10;;;;;;;9.27;6.00;;;7.00;99.90;;;;;;9818201;30;20287;-79
2023/12/19 15:44:32;;;;;;;8.40;5.27;;;6.90;99.90;;;;;;9828036;30;20279;-88
2023/12/19 15:49:53;;;;;;;6.97;4.83;;;6.90;99.90;;;;;;9800034;30;20258;-82
2023/12/19 15:55:14;;;;;;;5.90;3.83;;;6.80;99.90;;;;;;9820552;30;20229;-86
2023/12/19 16:00:36;;;;;;;6.03;3.90;;;6.80;99.90;;;;;;9807197;30;20269;-88
2023/12/19 16:05:58;;;;;;;3.97;2.50;;;6.80;99.90;;;;;;9783624;30;20222;-84
2023/12/19 16:11:23;;;;;;;7.53;4.67;;;6.80;99.90;;;;;;9806223;30;20254;-80
2023/12/19 16:16:44;;;;;;;8.03;4.67;;;6.80;99.90;;;;;;9769844;30;20242;-82
2023/12/19 16:22:06;;;;;;;11.00;5.37;;;6.70;99.90;;;;;;9790983;30;20221;-81
2023/12/19 16:27:28;;;;;;;10.67;5.33;;;6.70;99.90;;;;;;9818307;30;20593;-79
2023/12/19 16:32:49;;;;;;;12.53;6.50;;;6.70;99.90;;;;;;9831014;30;20250;-81
2023/12/19 16:38:10;;;;;;;9.60;4.83;;;6.80;99.90;;;;;;9793660;30;20248;-82
2023/12/19 16:43:32;;;;;;;5.30;3.40;;;6.70;99.90;;;;;;9818847;30;20493;-82
2023/12/19 16:48:53;;;;;;;8.50;5.20;;;6.70;99.90;;;;;;9819970;30;20238;-80
2023/12/19 16:54:14;;;;;;;7.23;4.20;;;6.60;99.90;;;;;;9790843;30;20294;-82
2023/12/19 16:59:36;;;;;;;7.07;4.50;;;6.60;99.90;;;;;;9779043;30;20464;-80
2023/12/19 17:04:57;;;;;;;4.23;2.73;;;6.60;99.90;;;;;;9786536;30;20480;-81
2023/12/19 17:10:19;;;;;;;32.70;10.73;;;6.60;99.90;;;;;;9793567;30;20207;-82
2023/12/19 17:15:44;;;;;;;10.67;4.93;;;6.60;99.90;;;;;;9818596;30;20206;-82
2023/12/19 17:21:05;;;;;;;5.70;3.77;;;6.60;99.90;;;;;;9819436;30;20206;-79
2023/12/19 17:26:27;;;;;;;8.40;4.43;;;6.60;99.90;;;;;;9793659;30;20240;-82
2023/12/19 17:31:48;;;;;;;9.70;4.60;;;6.60;99.90;;;;;;9806336;30;20392;-81
2023/12/19 17:37:09;;;;;;;9.70;4.50;;;6.60;99.90;;;;;;9817376;30;20241;-80
2023/12/19 17:42:31;;;;;;;7.03;3.50;;;6.50;99.90;;;;;;9805363;30;20211;-81
2023/12/19 17:47:52;;;;;;;9.40;3.80;;;6.60;99.90;;;;;;9817139;30;20329;-80
2023/12/19 17:53:14;;;;;;;17.40;7.27;;;6.60;99.90;;;;;;9803605;30;20226;-81
2023/12/19 17:58:36;;;;;;;7.17;3.80;;;6.60;99.90;;;;;;9817620;30;20432;-81
2023/12/19 18:03:58;;;;;;;5.87;3.30;;;6.60;99.90;;;;;;9817071;30;20210;-81
2023/12/19 18:09:19;;;;;;;6.47;3.80;;;6.60;99.90;;;;;;9817174;30;20229;-81
2023/12/19 18:14:40;;;;;;;7.60;3.30;;;6.50;99.90;;;;;;9817255;30;20208;-81
2023/12/19 18:20:02;;;;;;;18.20;8.23;;;6.50;99.90;;;;;;9804276;30;20235;-81
2023/12/19 18:25:23;;;;;;;6.33;3.43;;;6.60;99.90;;;;;;9780402;30;20238;-81
2023/12/19 18:30:45;;;;;;;6.33;3.60;;;6.50;99.90;;;;;;9801243;30;20216;-82
2023/12/19 18:36:07;;;;;;;12.53;5.70;;;6.60;99.90;;;;;;9804074;30;20214;-81
2023/12/19 18:41:28;;;;;;;10.60;4.30;;;6.60;99.90;;;;;;9804088;30;20605;-81
2023/12/19 18:46:49;;;;;;;16.27;6.13;;;6.60;99.90;;;;;;9816331;30;20564;-81
2023/12/19 18:52:11;;;;;;;16.17;6.63;;;6.60;99.90;;;;;;9802678;30;20452;-80
2023/12/19 18:57:32;;;;;;;5.00;3.80;;;6.50;99.90;;;;;;9804391;30;20306;-80
2023/12/19 19:02:54;;;;;;;11.23;5.70;;;6.50;99.90;;;;;;9820748;30;20213;-79
2023/12/19 19:08:15;;;;;;;12.13;5.70;;;6.60;99.90;;;;;;9801523;30;20218;-80
2023/12/19 19:13:36;;;;;;;8.20;4.00;;;6.50;99.90;;;;;;9798139;30;20523;-80
2023/12/19 19:18:57;;;;;;;7.00;3.87;;;6.60;99.90;;;;;;9797987;30;20235;-80
2023/12/19 19:24:19;;;;;;;10.40;4.60;;;6.60;99.90;;;;;;9821311;30;20455;-80
2023/12/19 19:29:40;;;;;;;7.60;4.63;;;6.60;99.90;;;;;;9822476;30;20290;-80
2023/12/19 19:35:01;;;;;;;11.97;5.30;;;6.60;99.90;;;;;;9809551;30;20294;-80
2023/12/19 19:40:23;;;;;;;7.77;3.40;;;6.50;99.90;;;;;;9822887;30;20266;-80
2023/12/19 19:45:47;;;;;;;9.20;4.30;;;6.60;99.90;;;;;;9809391;30;20283;-81
2023/12/19 19:51:09;;;;;;;13.50;6.53;;;6.60;99.90;;;;;;9808135;30;20249;-81
2023/12/19 19:56:34;;;;;;;8.27;3.73;;;6.50;99.90;;;;;;9799109;30;20234;-81
2023/12/19 20:01:56;;;;;;;8.03;3.40;;;6.50;99.90;;;;;;9807663;30;20447;-82
2023/12/19 20:07:17;;;;;;;17.50;6.57;;;6.50;99.90;;;;;;9819914;30;20222;-81
2023/12/19 20:12:38;;;;;;;11.97;5.97;;;6.50;99.90;;;;;;9807477;30;20214;-80
2023/12/19 20:18:00;;;;;;;12.80;6.17;;;6.50;99.90;;;;;;9796007;30;20307;-81
2023/12/19 20:23:27;;;;;;;15.10;6.53;;;6.50;99.90;;;;;;9808235;30;20210;-80
2023/12/19 20:28:49;;;;;;;12.23;5.50;;;6.50;99.90;;;;;;9807463;30;20502;-81
2023/12/19 20:34:10;;;;;;;7.20;4.60;;;6.50;99.90;;;;;;9807447;30;20210;-81
2023/12/19 20:39:32;;;;;;;15.33;6.40;;;6.50;99.90;;;;;;9807586;30;20249;-81
2023/12/19 20:44:53;;;;;;;10.80;5.63;;;6.50;99.90;;;;;;9807115;30;20222;-82
2023/12/19 20:50:14;;;;;;;6.33;3.80;;;6.50;99.90;;;;;;9793635;30;20308;-80
2023/12/19 20:55:36;;;;;;;3.97;3.20;;;6.50;99.90;;;;;;9817953;30;20225;-82
2023/12/19 21:00:57;;;;;;;3.27;2.30;;;6.50;99.90;;;;;;9818457;30;20272;-81
2023/12/19 21:06:19;;;;;;;4.07;2.33;;;6.50;99.90;;;;;;9805445;30;20430;-80
2023/12/19 21:11:40;;;;;;;3.27;2.30;;;6.50;99.90;;;;;;9806015;30;20222;-81
2023/12/19 21:17:02;;;;;;;2.43;1.90;;;6.50;99.90;;;;;;9802158;30;20230;-81
2023/12/19 21:22:24;;;;;;;7.37;2.70;;;6.50;99.90;;;;;;9804428;30;20484;-81
2023/12/19 21:27:45;;;;;;;2.23;1.73;;;6.50;99.90;;;;;;9818504;30;20391;-82
2023/12/19 21:33:07;;;;;;;7.00;2.10;;;6.60;99.90;;;;;;9805691;30;20221;-81
2023/12/19 21:38:28;;;;;;;3.80;2.10;;;6.60;99.90;;;;;;9805462;30;20573;-82
2023/12/19 21:43:50;;;;;;;3.97;1.97;;;6.50;99.90;;;;;;9805486;30;20214;-81
2023/12/19 21:49:11;;;;;;;7.00;2.43;;;6.50;99.90;;;;;;9805215;30;20566;-82
2023/12/19 21:54:32;;;;;;;5.80;2.93;;;6.50;99.90;;;;;;9814796;30;20224;-82
2023/12/19 21:59:54;;;;;;;4.57;2.57;;;6.50;99.90;;;;;;9804998;30;20238;-81
2023/12/19 22:05:15;;;;;;;5.63;2.60;;;6.50;99.90;;;;;;9803974;30;20412;-81
2023/12/19 22:10:36;;;;;;;8.03;2.50;;;6.50;99.90;;;;;;9815019;30;20400;-81
2023/12/19 22:15:57;;;;;;;13.00;4.57;;;6.50;99.90;;;;;;9804571;30;20206;-81
2023/12/19 22:21:22;;;;;;;6.30;3.03;;;6.60;99.90;;;;;;9817276;30;20317;-80
2023/12/19 22:26:43;;;;;;;2.43;2.00;;;6.50;99.90;;;;;;9816594;30;20210;-81
2023/12/19 22:32:05;;;;;;;2.80;1.53;;;6.50;99.90;;;;;;9792312;30;20218;-81
2023/12/19 22:37:28;;;;;;;1.73;1.63;;;6.50;99.90;;;;;;9822358;30;20221;-80
2023/12/19 22:42:49;;;;;;;2.13;1.60;;;6.50;99.90;;;;;;9811559;30;20233;-81
2023/12/19 22:48:10;;;;;;;2.47;1.70;;;6.60;99.90;;;;;;9811369;30;20540;-81
2023/12/19 22:53:31;;;;;;;2.80;1.63;;;6.50;99.90;;;;;;9823097;30;20415;-80
2023/12/19 22:58:53;;;;;;;2.77;2.10;;;6.50;99.90;;;;;;9810367;30;20472;-81
2023/12/19 23:04:14;;;;;;;4.13;2.70;;;6.60;99.90;;;;;;9823547;30;20202;-80
2023/12/19 23:09:39;;;;;;;2.63;2.00;;;6.50;99.90;;;;;;9810836;30;20296;-81
2023/12/19 23:15:01;;;;;;;2.90;1.77;;;6.60;99.90;;;;;;9822602;30;20210;-80
2023/12/19 23:20:22;;;;;;;2.27;1.80;;;6.60;99.90;;;;;;9810137;30;20317;-81
2023/12/19 23:25:44;;;;;;;1.70;1.33;;;6.60;99.90;;;;;;9821520;30;20209;-81
2023/12/19 23:31:05;;;;;;;1.20;1.10;;;6.60;99.90;;;;;;9810367;30;20291;-82
2023/12/19 23:36:27;;;;;;;1.93;1.40;;;6.60;99.90;;;;;;9797649;30;20285;-81
2023/12/19 23:41:48;;;;;;;1.97;1.30;;;6.50;99.90;;;;;;9821796;30;20206;-81
2023/12/19 23:47:09;;;;;;;2.17;1.30;;;6.60;99.90;;;;;;9796171;30;20533;-81
2023/12/19 23:52:30;;;;;;;2.07;1.20;;;6.60;99.90;;;;;;9821391;30;20206;-81
2023/12/19 23:57:52;;;;;;;2.10;1.10;;;6.70;99.90;;;;;;9820494;30;20245;-81
